Whitehall, Michigan
Current Conditions -  °F | °C
As of 10:55 AM on Sunday 21 Dec 2014 (Local Time) from KMKG Reporting Station
Haze Haze  
Wind Chill: 24°   Ceiling: 4700
Heat Index: 33°   Visibility: 5mi
Dew Point: 26°   Wind: 13mph
Humidity: 75%   Direction: 150°SSE
Pressure: 30.23"   Gusts: NA
Location:  43.41°N, 86.35°W
Report Text: KMKG 211555Z 15011KT 5SM HZ FEW027 OVC047 01/M03 A3023 RMK AO2 SLP244 T00061033
Loading
Personal Weather Stations






























Interactive Weather Map New forecast layout! Learn more

10-Day Weather Forecast

Advertisements
Track Severe Weather on mobile